sensor_id;sensor_type;location;lat;lon;timestamp;pressure;altitude;pressure_sealevel;temperature;humidity
48964;BME280;34776;48.180;16.420;2022-08-19T00:01:52;98990.22;;;24.97;43.29
48964;BME280;34776;48.180;16.420;2022-08-19T00:04:23;99008.59;;;24.95;43.25
48964;BME280;34776;48.180;16.420;2022-08-19T00:06:50;99017.31;;;24.90;43.81
48964;BME280;34776;48.180;16.420;2022-08-19T00:09:18;99011.81;;;24.83;43.89
48964;BME280;34776;48.180;16.420;2022-08-19T00:11:44;99013.41;;;24.78;43.97
48964;BME280;34776;48.180;16.420;2022-08-19T00:14:13;99015.84;;;24.73;44.25
48964;BME280;34776;48.180;16.420;2022-08-19T00:16:40;99017.91;;;24.70;44.71
48964;BME280;34776;48.180;16.420;2022-08-19T00:19:06;99008.66;;;24.65;45.21
48964;BME280;34776;48.180;16.420;2022-08-19T00:21:32;99012.78;;;24.61;45.36
48964;BME280;34776;48.180;16.420;2022-08-19T00:23:58;99018.59;;;24.58;46.41
48964;BME280;34776;48.180;16.420;2022-08-19T00:26:25;99015.22;;;24.56;47.38
48964;BME280;34776;48.180;16.420;2022-08-19T00:28:50;99001.72;;;24.47;48.02
48964;BME280;34776;48.180;16.420;2022-08-19T00:31:16;99009.38;;;24.44;48.78
48964;BME280;34776;48.180;16.420;2022-08-19T00:33:41;99010.34;;;24.36;49.86
48964;BME280;34776;48.180;16.420;2022-08-19T00:36:08;99008.16;;;24.31;49.79
48964;BME280;34776;48.180;16.420;2022-08-19T00:38:36;98998.91;;;24.26;50.34
48964;BME280;34776;48.180;16.420;2022-08-19T00:41:03;99001.31;;;24.21;51.59
48964;BME280;34776;48.180;16.420;2022-08-19T00:43:28;98996.28;;;24.18;52.16
48964;BME280;34776;48.180;16.420;2022-08-19T00:45:54;98998.69;;;24.13;52.66
48964;BME280;34776;48.180;16.420;2022-08-19T00:48:20;99006.19;;;24.10;53.51
48964;BME280;34776;48.180;16.420;2022-08-19T00:50:49;98995.22;;;24.04;54.29
48964;BME280;34776;48.180;16.420;2022-08-19T00:53:19;98996.84;;;23.98;54.48
48964;BME280;34776;48.180;16.420;2022-08-19T00:55:48;99003.09;;;23.99;54.56
48964;BME280;34776;48.180;16.420;2022-08-19T00:58:16;99001.22;;;23.99;55.22
48964;BME280;34776;48.180;16.420;2022-08-19T01:00:43;99002.78;;;23.94;55.97
48964;BME280;34776;48.180;16.420;2022-08-19T01:03:11;98997.81;;;23.82;56.51
48964;BME280;34776;48.180;16.420;2022-08-19T01:05:39;98990.94;;;23.71;57.21
48964;BME280;34776;48.180;16.420;2022-08-19T01:08:07;98989.97;;;23.64;57.01
48964;BME280;34776;48.180;16.420;2022-08-19T01:10:41;98989.97;;;23.64;57.55
48964;BME280;34776;48.180;16.420;2022-08-19T01:13:07;98993.72;;;23.63;57.61
48964;BME280;34776;48.180;16.420;2022-08-19T01:15:38;99007.00;;;23.58;58.38
48964;BME280;34776;48.180;16.420;2022-08-19T01:18:08;99015.31;;;23.57;58.31
48964;BME280;34776;48.180;16.420;2022-08-19T01:20:34;99006.34;;;23.56;58.06
48964;BME280;34776;48.180;16.420;2022-08-19T01:23:00;98996.50;;;23.55;58.00
48964;BME280;34776;48.180;16.420;2022-08-19T01:25:39;98995.69;;;23.55;58.97
48964;BME280;34776;48.180;16.420;2022-08-19T01:28:06;99015.22;;;23.50;59.01
48964;BME280;34776;48.180;16.420;2022-08-19T01:30:34;99020.97;;;23.47;59.20
48964;BME280;34776;48.180;16.420;2022-08-19T01:33:01;99020.97;;;23.47;59.11
48964;BME280;34776;48.180;16.420;2022-08-19T01:35:29;99022.19;;;23.44;59.25
48964;BME280;34776;48.180;16.420;2022-08-19T01:38:02;99025.44;;;23.40;59.19
48964;BME280;34776;48.180;16.420;2022-08-19T01:40:35;99029.16;;;23.39;59.05
48964;BME280;34776;48.180;16.420;2022-08-19T01:43:04;99018.31;;;23.39;59.03
48964;BME280;34776;48.180;16.420;2022-08-19T01:45:32;99017.09;;;23.41;59.10
48964;BME280;34776;48.180;16.420;2022-08-19T01:47:58;99019.19;;;23.39;59.27
48964;BME280;34776;48.180;16.420;2022-08-19T01:50:23;99025.34;;;23.33;59.63
48964;BME280;34776;48.180;16.420;2022-08-19T01:52:49;99023.13;;;23.28;59.83
48964;BME280;34776;48.180;16.420;2022-08-19T01:55:17;99010.78;;;23.26;59.98
48964;BME280;34776;48.180;16.420;2022-08-19T01:57:47;99013.50;;;23.26;60.44
48964;BME280;34776;48.180;16.420;2022-08-19T02:00:16;99014.88;;;23.22;60.38
48964;BME280;34776;48.180;16.420;2022-08-19T02:02:42;99029.09;;;23.24;60.64
48964;BME280;34776;48.180;16.420;2022-08-19T02:05:09;99038.06;;;23.24;60.58
48964;BME280;34776;48.180;16.420;2022-08-19T02:07:36;99048.56;;;23.27;60.56
48964;BME280;34776;48.180;16.420;2022-08-19T02:10:08;99056.88;;;23.26;60.87
48964;BME280;34776;48.180;16.420;2022-08-19T02:12:34;99050.97;;;23.22;60.83
48964;BME280;34776;48.180;16.420;2022-08-19T02:15:00;99048.44;;;23.21;60.99
48964;BME280;34776;48.180;16.420;2022-08-19T02:17:27;99047.91;;;23.25;60.86
48964;BME280;34776;48.180;16.420;2022-08-19T02:19:54;99041.44;;;23.26;60.75
48964;BME280;34776;48.180;16.420;2022-08-19T02:22:19;99041.44;;;23.26;60.70
48964;BME280;34776;48.180;16.420;2022-08-19T02:24:45;99043.16;;;23.27;60.61
48964;BME280;34776;48.180;16.420;2022-08-19T02:27:14;99036.03;;;23.26;60.88
48964;BME280;34776;48.180;16.420;2022-08-19T02:29:39;99032.31;;;23.27;60.89
48964;BME280;34776;48.180;16.420;2022-08-19T02:32:05;99036.03;;;23.26;60.43
48964;BME280;34776;48.180;16.420;2022-08-19T02:34:30;99038.56;;;23.28;60.60
48964;BME280;34776;48.180;16.420;2022-08-19T02:36:55;99041.09;;;23.29;60.09
48964;BME280;34776;48.180;16.420;2022-08-19T02:39:21;99052.78;;;23.30;59.44
48964;BME280;34776;48.180;16.420;2022-08-19T02:41:46;99047.84;;;23.34;58.79
48964;BME280;34776;48.180;16.420;2022-08-19T02:44:12;99052.91;;;23.37;58.65
48964;BME280;34776;48.180;16.420;2022-08-19T02:46:37;99081.88;;;23.36;59.21
48964;BME280;34776;48.180;16.420;2022-08-19T02:49:05;99091.28;;;23.25;60.06
48964;BME280;34776;48.180;16.420;2022-08-19T02:51:39;99074.06;;;23.18;60.26
48964;BME280;34776;48.180;16.420;2022-08-19T02:54:07;99076.44;;;23.13;60.86
48964;BME280;34776;48.180;16.420;2022-08-19T02:56:37;99076.47;;;23.05;60.98
48964;BME280;34776;48.180;16.420;2022-08-19T02:59:03;99076.31;;;22.98;61.83
48964;BME280;34776;48.180;16.420;2022-08-19T03:01:36;99072.13;;;22.87;62.21
48964;BME280;34776;48.180;16.420;2022-08-19T03:04:04;99060.47;;;22.87;61.94
48964;BME280;34776;48.180;16.420;2022-08-19T03:06:30;99066.88;;;22.86;62.10
48964;BME280;34776;48.180;16.420;2022-08-19T03:08:56;99066.88;;;22.86;62.18
48964;BME280;34776;48.180;16.420;2022-08-19T03:11:28;99070.97;;;22.82;62.37
48964;BME280;34776;48.180;16.420;2022-08-19T03:13:55;99064.19;;;22.78;62.95
48964;BME280;34776;48.180;16.420;2022-08-19T03:16:23;99078.28;;;22.73;62.96
48964;BME280;34776;48.180;16.420;2022-08-19T03:18:50;99078.97;;;22.67;63.33
48964;BME280;34776;48.180;16.420;2022-08-19T03:21:21;99092.53;;;22.59;63.55
48964;BME280;34776;48.180;16.420;2022-08-19T03:23:49;99082.75;;;22.58;63.04
48964;BME280;34776;48.180;16.420;2022-08-19T03:26:14;99079.66;;;22.61;63.12
48964;BME280;34776;48.180;16.420;2022-08-19T03:28:41;99083.03;;;22.63;63.18
48964;BME280;34776;48.180;16.420;2022-08-19T03:31:12;99085.09;;;22.61;63.02
48964;BME280;34776;48.180;16.420;2022-08-19T03:33:39;99091.53;;;22.60;63.17
48964;BME280;34776;48.180;16.420;2022-08-19T03:36:15;99097.94;;;22.59;63.13
48964;BME280;34776;48.180;16.420;2022-08-19T03:38:44;99102.84;;;22.55;63.43
48964;BME280;34776;48.180;16.420;2022-08-19T03:41:13;99112.38;;;22.51;63.86
48964;BME280;34776;48.180;16.420;2022-08-19T03:43:41;99123.91;;;22.45;63.89
48964;BME280;34776;48.180;16.420;2022-08-19T03:46:10;99124.38;;;22.40;63.92
48964;BME280;34776;48.180;16.420;2022-08-19T03:48:37;99122.34;;;22.34;64.35
48964;BME280;34776;48.180;16.420;2022-08-19T03:51:03;99128.50;;;22.28;64.48
48964;BME280;34776;48.180;16.420;2022-08-19T03:53:31;99125.09;;;22.26;64.53
48964;BME280;34776;48.180;16.420;2022-08-19T03:55:57;99123.72;;;22.22;64.91
48964;BME280;34776;48.180;16.420;2022-08-19T03:58:25;99122.00;;;22.21;64.87
48964;BME280;34776;48.180;16.420;2022-08-19T04:00:52;99128.78;;;22.17;65.33
48964;BME280;34776;48.180;16.420;2022-08-19T04:03:18;99129.31;;;22.12;65.18
48964;BME280;34776;48.180;16.420;2022-08-19T04:05:44;99139.28;;;22.12;65.51
48964;BME280;34776;48.180;16.420;2022-08-19T04:08:09;99143.16;;;22.17;65.22
48964;BME280;34776;48.180;16.420;2022-08-19T04:10:36;99126.59;;;22.20;65.12
48964;BME280;34776;48.180;16.420;2022-08-19T04:13:05;99134.91;;;22.27;64.88
48964;BME280;34776;48.180;16.420;2022-08-19T04:15:32;99133.91;;;22.28;65.21
48964;BME280;34776;48.180;16.420;2022-08-19T04:18:04;99137.28;;;22.30;65.28
48964;BME280;34776;48.180;16.420;2022-08-19T04:20:38;99140.81;;;22.39;65.45
48964;BME280;34776;48.180;16.420;2022-08-19T04:23:04;99143.16;;;22.50;64.33
48964;BME280;34776;48.180;16.420;2022-08-19T04:25:38;99149.06;;;22.62;64.63
48964;BME280;34776;48.180;16.420;2022-08-19T04:28:04;99152.44;;;22.72;64.27
48964;BME280;34776;48.180;16.420;2022-08-19T04:30:30;99156.97;;;22.80;63.94
48964;BME280;34776;48.180;16.420;2022-08-19T04:32:55;99142.41;;;22.89;63.79
48964;BME280;34776;48.180;16.420;2022-08-19T04:35:20;99141.88;;;23.02;63.71
48964;BME280;34776;48.180;16.420;2022-08-19T04:37:46;99139.28;;;23.17;62.85
48964;BME280;34776;48.180;16.420;2022-08-19T04:40:11;99135.63;;;23.33;62.67
48964;BME280;34776;48.180;16.420;2022-08-19T04:42:55;99147.75;;;23.45;62.04
48964;BME280;34776;48.180;16.420;2022-08-19T04:45:21;99139.94;;;23.50;61.80
48964;BME280;34776;48.180;16.420;2022-08-19T04:47:47;99144.66;;;23.56;61.68
48964;BME280;34776;48.180;16.420;2022-08-19T04:50:13;99142.72;;;23.65;61.45
48964;BME280;34776;48.180;16.420;2022-08-19T04:52:39;99156.41;;;23.80;61.03
48964;BME280;34776;48.180;16.420;2022-08-19T04:55:11;99152.25;;;23.92;60.61
48964;BME280;34776;48.180;16.420;2022-08-19T04:57:37;99158.34;;;23.94;60.43
48964;BME280;34776;48.180;16.420;2022-08-19T05:00:07;99161.28;;;24.07;60.01
48964;BME280;34776;48.180;16.420;2022-08-19T05:02:32;99160.81;;;24.19;59.75
48964;BME280;34776;48.180;16.420;2022-08-19T05:04:58;99152.53;;;24.35;59.56
48964;BME280;34776;48.180;16.420;2022-08-19T05:07:27;99163.34;;;24.43;59.18
48964;BME280;34776;48.180;16.420;2022-08-19T05:09:52;99168.66;;;24.60;58.45
48964;BME280;34776;48.180;16.420;2022-08-19T05:12:18;99164.16;;;24.67;58.02
48964;BME280;34776;48.180;16.420;2022-08-19T05:14:45;99163.50;;;24.80;57.89
48964;BME280;34776;48.180;16.420;2022-08-19T05:17:13;99170.38;;;24.90;57.76
48964;BME280;34776;48.180;16.420;2022-08-19T05:19:44;99170.25;;;24.99;57.41
48964;BME280;34776;48.180;16.420;2022-08-19T05:22:29;99178.22;;;25.00;56.95
48964;BME280;34776;48.180;16.420;2022-08-19T05:25:11;99194.84;;;25.05;56.88
48964;BME280;34776;48.180;16.420;2022-08-19T05:27:38;99189.47;;;25.12;56.78
48964;BME280;34776;48.180;16.420;2022-08-19T05:30:05;99199.13;;;25.15;56.51
48964;BME280;34776;48.180;16.420;2022-08-19T05:32:31;99201.19;;;25.12;56.44
48964;BME280;34776;48.180;16.420;2022-08-19T05:34:56;99208.22;;;25.07;56.33
48964;BME280;34776;48.180;16.420;2022-08-19T05:37:22;99212.34;;;25.03;56.62
48964;BME280;34776;48.180;16.420;2022-08-19T05:39:48;99211.41;;;24.96;56.85
48964;BME280;34776;48.180;16.420;2022-08-19T05:42:15;99214.13;;;24.96;56.90
48964;BME280;34776;48.180;16.420;2022-08-19T05:44:43;99235.31;;;25.00;56.85
48964;BME280;34776;48.180;16.420;2022-08-19T05:47:14;99237.84;;;25.02;57.07
48964;BME280;34776;48.180;16.420;2022-08-19T05:49:40;99254.91;;;24.96;56.97
48964;BME280;34776;48.180;16.420;2022-08-19T05:52:10;99264.44;;;24.91;57.33
48964;BME280;34776;48.180;16.420;2022-08-19T05:54:39;99255.44;;;24.76;57.54
48964;BME280;34776;48.180;16.420;2022-08-19T05:57:07;99259.16;;;24.75;58.04
48964;BME280;34776;48.180;16.420;2022-08-19T05:59:33;99267.88;;;24.70;58.04
48964;BME280;34776;48.180;16.420;2022-08-19T06:02:04;99269.69;;;24.78;57.98
48964;BME280;34776;48.180;16.420;2022-08-19T06:04:29;99278.13;;;24.83;57.93
48964;BME280;34776;48.180;16.420;2022-08-19T06:06:55;99272.97;;;24.88;57.67
48964;BME280;34776;48.180;16.420;2022-08-19T06:09:22;99278.69;;;24.94;57.68
48964;BME280;34776;48.180;16.420;2022-08-19T06:11:51;99276.88;;;24.86;57.51
48964;BME280;34776;48.180;16.420;2022-08-19T06:14:22;99278.69;;;24.94;57.64
48964;BME280;34776;48.180;16.420;2022-08-19T06:16:48;99290.88;;;24.98;57.37
48964;BME280;34776;48.180;16.420;2022-08-19T06:19:17;99290.97;;;24.89;57.61
48964;BME280;34776;48.180;16.420;2022-08-19T06:21:47;99300.31;;;24.72;58.03
48964;BME280;34776;48.180;16.420;2022-08-19T06:24:18;99290.09;;;24.74;58.46
48964;BME280;34776;48.180;16.420;2022-08-19T06:26:46;99284.53;;;24.90;57.80
48964;BME280;34776;48.180;16.420;2022-08-19T06:29:15;99270.81;;;24.99;57.52
48964;BME280;34776;48.180;16.420;2022-08-19T06:31:43;99262.31;;;25.17;56.98
48964;BME280;34776;48.180;16.420;2022-08-19T06:34:09;99279.06;;;25.43;56.60
48964;BME280;34776;48.180;16.420;2022-08-19T06:36:40;99281.19;;;25.63;55.86
48964;BME280;34776;48.180;16.420;2022-08-19T06:39:15;99279.78;;;25.67;55.44
48964;BME280;34776;48.180;16.420;2022-08-19T06:41:43;99277.88;;;25.82;55.20
48964;BME280;34776;48.180;16.420;2022-08-19T06:44:10;99281.00;;;25.94;54.79
48964;BME280;34776;48.180;16.420;2022-08-19T06:46:38;99278.69;;;26.12;54.32
48964;BME280;34776;48.180;16.420;2022-08-19T06:49:03;99284.28;;;26.26;54.10
48964;BME280;34776;48.180;16.420;2022-08-19T06:51:29;99267.16;;;26.53;52.97
48964;BME280;34776;48.180;16.420;2022-08-19T06:53:56;99274.03;;;26.49;52.96
48964;BME280;34776;48.180;16.420;2022-08-19T06:56:25;99269.00;;;26.68;52.62
48964;BME280;34776;48.180;16.420;2022-08-19T06:58:56;99258.19;;;26.81;52.32
48964;BME280;34776;48.180;16.420;2022-08-19T07:01:21;99243.56;;;27.17;51.56
48964;BME280;34776;48.180;16.420;2022-08-19T07:03:47;99252.69;;;27.66;50.88
48964;BME280;34776;48.180;16.420;2022-08-19T07:06:15;99257.72;;;27.76;50.01
48964;BME280;34776;48.180;16.420;2022-08-19T07:08:43;99260.44;;;28.17;49.40
48964;BME280;34776;48.180;16.420;2022-08-19T07:11:11;99256.31;;;28.88;48.24
48964;BME280;34776;48.180;16.420;2022-08-19T07:13:38;99262.47;;;29.68;46.45
48964;BME280;34776;48.180;16.420;2022-08-19T07:16:09;99262.69;;;29.80;45.39
48964;BME280;34776;48.180;16.420;2022-08-19T07:18:35;99259.09;;;29.80;45.43
48964;BME280;34776;48.180;16.420;2022-08-19T07:21:10;99250.53;;;29.49;45.21
48964;BME280;34776;48.180;16.420;2022-08-19T07:23:36;99239.50;;;28.84;46.48
48964;BME280;34776;48.180;16.420;2022-08-19T07:26:09;99234.84;;;28.51;46.91
48964;BME280;34776;48.180;16.420;2022-08-19T07:28:35;99228.78;;;28.63;47.43
48964;BME280;34776;48.180;16.420;2022-08-19T07:31:07;99227.72;;;28.77;46.95
48964;BME280;34776;48.180;16.420;2022-08-19T07:33:33;99228.97;;;28.88;46.54
48964;BME280;34776;48.180;16.420;2022-08-19T07:36:03;99223.06;;;28.98;46.46
48964;BME280;34776;48.180;16.420;2022-08-19T07:38:29;99223.00;;;29.38;45.59
48964;BME280;34776;48.180;16.420;2022-08-19T07:40:55;99231.72;;;29.66;44.86
48964;BME280;34776;48.180;16.420;2022-08-19T07:43:20;99231.56;;;30.06;44.18
48964;BME280;34776;48.180;16.420;2022-08-19T07:51:10;99191.69;;;33.28;39.09
48964;BME280;34776;48.180;16.420;2022-08-19T07:53:50;99182.63;;;34.59;36.34
48964;BME280;34776;48.180;16.420;2022-08-19T08:01:26;99190.91;;;37.48;32.00
48964;BME280;34776;48.180;16.420;2022-08-19T08:03:54;99187.84;;;38.69;29.84
48964;BME280;34776;48.180;16.420;2022-08-19T08:06:39;99190.84;;;38.93;29.80
48964;BME280;34776;48.180;16.420;2022-08-19T08:09:32;99189.47;;;39.11;28.20
48964;BME280;34776;48.180;16.420;2022-08-19T08:12:10;99209.09;;;40.05;27.68
48964;BME280;34776;48.180;16.420;2022-08-19T08:14:45;99215.47;;;40.50;25.96
48964;BME280;34776;48.180;16.420;2022-08-19T08:17:14;99209.22;;;39.74;27.77
48964;BME280;34776;48.180;16.420;2022-08-19T08:19:40;99207.41;;;39.39;27.75
48964;BME280;34776;48.180;16.420;2022-08-19T08:22:09;99217.25;;;39.06;28.47
48964;BME280;34776;48.180;16.420;2022-08-19T08:24:55;99213.03;;;39.18;28.42
48964;BME280;34776;48.180;16.420;2022-08-19T08:27:23;99221.16;;;39.85;27.38
48964;BME280;34776;48.180;16.420;2022-08-19T08:29:50;99222.91;;;40.21;26.04
48964;BME280;34776;48.180;16.420;2022-08-19T08:32:15;99236.66;;;39.16;27.82
48964;BME280;34776;48.180;16.420;2022-08-19T08:34:41;99233.91;;;38.80;27.03
48964;BME280;34776;48.180;16.420;2022-08-19T08:37:07;99232.78;;;38.30;28.04
48964;BME280;34776;48.180;16.420;2022-08-19T08:39:32;99241.13;;;38.55;27.97
48964;BME280;34776;48.180;16.420;2022-08-19T08:42:07;99241.81;;;37.89;27.35
48964;BME280;34776;48.180;16.420;2022-08-19T08:47:17;99256.97;;;36.81;29.71
48964;BME280;34776;48.180;16.420;2022-08-19T08:49:48;99265.19;;;37.08;29.32
48964;BME280;34776;48.180;16.420;2022-08-19T08:52:23;99255.97;;;36.97;28.37
48964;BME280;34776;48.180;16.420;2022-08-19T08:54:52;99265.47;;;36.42;29.90
48964;BME280;34776;48.180;16.420;2022-08-19T08:57:40;99268.91;;;36.05;30.10
48964;BME280;34776;48.180;16.420;2022-08-19T09:00:15;99266.97;;;35.79;30.79
48964;BME280;34776;48.180;16.420;2022-08-19T09:02:42;99266.69;;;35.80;31.08
48964;BME280;34776;48.180;16.420;2022-08-19T09:05:09;99249.84;;;36.04;30.59
48964;BME280;34776;48.180;16.420;2022-08-19T09:10:31;99241.56;;;35.60;30.50
48964;BME280;34776;48.180;16.420;2022-08-19T09:15:58;99236.44;;;35.68;31.24
48964;BME280;34776;48.180;16.420;2022-08-19T09:18:39;99227.19;;;35.02;31.57
48964;BME280;34776;48.180;16.420;2022-08-19T09:21:05;99220.38;;;35.26;31.81
48964;BME280;34776;48.180;16.420;2022-08-19T09:23:30;99202.94;;;35.26;31.86
48964;BME280;34776;48.180;16.420;2022-08-19T09:25:55;99214.31;;;34.90;32.18
48964;BME280;34776;48.180;16.420;2022-08-19T09:28:21;99208.75;;;34.40;33.15
48964;BME280;34776;48.180;16.420;2022-08-19T09:30:46;99210.59;;;34.17;33.32
48964;BME280;34776;48.180;16.420;2022-08-19T09:33:12;99206.16;;;33.87;33.57
48964;BME280;34776;48.180;16.420;2022-08-19T09:35:37;99197.63;;;33.89;33.60
48964;BME280;34776;48.180;16.420;2022-08-19T09:38:04;99181.97;;;34.06;33.44
48964;BME280;34776;48.180;16.420;2022-08-19T09:40:30;99176.66;;;34.16;33.54
48964;BME280;34776;48.180;16.420;2022-08-19T09:42:56;99184.16;;;34.04;33.03
48964;BME280;34776;48.180;16.420;2022-08-19T09:45:23;99190.31;;;34.11;32.79
48964;BME280;34776;48.180;16.420;2022-08-19T09:47:50;99196.94;;;33.82;33.04
48964;BME280;34776;48.180;16.420;2022-08-19T09:50:16;99195.47;;;33.50;33.53
48964;BME280;34776;48.180;16.420;2022-08-19T09:52:43;99187.13;;;33.33;34.04
48964;BME280;34776;48.180;16.420;2022-08-19T09:55:10;99193.91;;;33.66;33.33
48964;BME280;34776;48.180;16.420;2022-08-19T09:57:35;99207.19;;;33.98;33.02
48964;BME280;34776;48.180;16.420;2022-08-19T10:00:03;99196.16;;;33.69;33.18
48964;BME280;34776;48.180;16.420;2022-08-19T10:02:29;99186.00;;;33.46;33.89
48964;BME280;34776;48.180;16.420;2022-08-19T10:04:54;99189.38;;;33.60;33.51
48964;BME280;34776;48.180;16.420;2022-08-19T10:07:38;99187.88;;;33.69;33.27
48964;BME280;34776;48.180;16.420;2022-08-19T10:10:05;99189.66;;;34.04;32.91
48964;BME280;34776;48.180;16.420;2022-08-19T10:12:32;99193.09;;;33.83;32.68
48964;BME280;34776;48.180;16.420;2022-08-19T10:14:59;99196.94;;;33.29;33.46
48964;BME280;34776;48.180;16.420;2022-08-19T10:17:24;99196.13;;;33.17;33.75
48964;BME280;34776;48.180;16.420;2022-08-19T10:19:51;99192.34;;;33.47;33.75
48964;BME280;34776;48.180;16.420;2022-08-19T10:22:18;99196.16;;;33.98;33.09
48964;BME280;34776;48.180;16.420;2022-08-19T10:24:45;99192.13;;;34.17;32.52
48964;BME280;34776;48.180;16.420;2022-08-19T10:27:10;99196.72;;;33.83;32.52
48964;BME280;34776;48.180;16.420;2022-08-19T10:29:35;99201.59;;;33.41;33.10
48964;BME280;34776;48.180;16.420;2022-08-19T10:32:03;99204.53;;;33.22;33.28
48964;BME280;34776;48.180;16.420;2022-08-19T10:34:30;99215.75;;;32.97;33.55
48964;BME280;34776;48.180;16.420;2022-08-19T10:36:57;99230.56;;;32.72;34.13
48964;BME280;34776;48.180;16.420;2022-08-19T10:39:23;99244.00;;;32.50;34.43
48964;BME280;34776;48.180;16.420;2022-08-19T10:41:48;99257.81;;;32.20;35.27
48964;BME280;34776;48.180;16.420;2022-08-19T10:44:13;99253.63;;;32.18;35.18
48964;BME280;34776;48.180;16.420;2022-08-19T10:46:42;99251.47;;;32.20;35.23
48964;BME280;34776;48.180;16.420;2022-08-19T10:49:10;99232.97;;;32.27;35.39
48964;BME280;34776;48.180;16.420;2022-08-19T10:51:37;99217.69;;;32.31;35.64
48964;BME280;34776;48.180;16.420;2022-08-19T10:54:22;99218.91;;;32.47;35.62
48964;BME280;34776;48.180;16.420;2022-08-19T10:56:48;99217.34;;;32.39;35.63
48964;BME280;34776;48.180;16.420;2022-08-19T11:01:44;99246.34;;;31.56;36.24
48964;BME280;34776;48.180;16.420;2022-08-19T11:04:10;99273.38;;;31.15;38.60
48964;BME280;34776;48.180;16.420;2022-08-19T11:06:40;99282.13;;;30.10;41.53
48964;BME280;34776;48.180;16.420;2022-08-19T11:09:06;99242.84;;;28.86;44.71
48964;BME280;34776;48.180;16.420;2022-08-19T11:11:32;99228.94;;;27.66;48.50
48964;BME280;34776;48.180;16.420;2022-08-19T11:13:58;99237.34;;;26.67;53.71
48964;BME280;34776;48.180;16.420;2022-08-19T11:16:25;99240.63;;;25.98;58.68
48964;BME280;34776;48.180;16.420;2022-08-19T11:18:56;99252.19;;;25.70;61.93
48964;BME280;34776;48.180;16.420;2022-08-19T11:21:32;99234.78;;;25.49;64.25
48964;BME280;34776;48.180;16.420;2022-08-19T11:24:00;99235.78;;;25.63;65.92
48964;BME280;34776;48.180;16.420;2022-08-19T11:26:27;99218.31;;;26.09;66.58
48964;BME280;34776;48.180;16.420;2022-08-19T11:28:54;99220.16;;;26.73;64.24
48964;BME280;34776;48.180;16.420;2022-08-19T11:31:23;99219.81;;;27.46;63.12
48964;BME280;34776;48.180;16.420;2022-08-19T11:33:49;99215.72;;;28.78;61.25
48964;BME280;34776;48.180;16.420;2022-08-19T11:36:19;99203.03;;;30.21;57.43
48964;BME280;34776;48.180;16.420;2022-08-19T11:38:46;99194.84;;;30.71;54.34
48964;BME280;34776;48.180;16.420;2022-08-19T11:41:14;99198.06;;;31.30;54.65
48964;BME280;34776;48.180;16.420;2022-08-19T11:43:40;99194.19;;;32.05;53.13
48964;BME280;34776;48.180;16.420;2022-08-19T11:46:06;99189.03;;;32.08;50.58
48964;BME280;34776;48.180;16.420;2022-08-19T11:48:32;99190.63;;;31.86;50.27
48964;BME280;34776;48.180;16.420;2022-08-19T11:50:58;99187.53;;;31.94;51.22
48964;BME280;34776;48.180;16.420;2022-08-19T11:53:23;99172.56;;;32.62;49.56
48964;BME280;34776;48.180;16.420;2022-08-19T11:55:52;99172.16;;;33.29;47.91
48964;BME280;34776;48.180;16.420;2022-08-19T11:58:21;99176.50;;;33.66;46.59
48964;BME280;34776;48.180;16.420;2022-08-19T12:00:47;99176.94;;;34.03;46.42
48964;BME280;34776;48.180;16.420;2022-08-19T12:03:13;99167.09;;;34.70;44.82
48964;BME280;34776;48.180;16.420;2022-08-19T12:05:39;99177.34;;;34.57;45.34
48964;BME280;34776;48.180;16.420;2022-08-19T12:08:05;99170.41;;;33.92;43.97
48964;BME280;34776;48.180;16.420;2022-08-19T12:10:31;99171.72;;;33.09;43.92
48964;BME280;34776;48.180;16.420;2022-08-19T12:12:56;99188.69;;;32.82;47.40
48964;BME280;34776;48.180;16.420;2022-08-19T12:15:21;99190.13;;;32.73;45.78
48964;BME280;34776;48.180;16.420;2022-08-19T12:17:47;99178.03;;;32.08;45.59
48964;BME280;34776;48.180;16.420;2022-08-19T12:20:13;99151.72;;;31.70;46.34
48964;BME280;34776;48.180;16.420;2022-08-19T12:22:41;99172.59;;;31.90;46.01
48964;BME280;34776;48.180;16.420;2022-08-19T12:25:08;99183.22;;;33.58;43.07
48964;BME280;34776;48.180;16.420;2022-08-19T12:27:34;99191.13;;;34.91;40.73
48964;BME280;34776;48.180;16.420;2022-08-19T12:30:01;99190.94;;;35.15;39.67
48964;BME280;34776;48.180;16.420;2022-08-19T12:32:27;99193.28;;;35.06;38.83
48964;BME280;34776;48.180;16.420;2022-08-19T12:34:53;99212.28;;;34.35;38.18
48964;BME280;34776;48.180;16.420;2022-08-19T12:37:19;99210.72;;;33.41;38.54
48964;BME280;34776;48.180;16.420;2022-08-19T12:39:45;99211.59;;;32.52;38.99
48964;BME280;34776;48.180;16.420;2022-08-19T12:42:12;99219.47;;;31.76;39.85
48964;BME280;34776;48.180;16.420;2022-08-19T12:44:40;99221.31;;;31.27;41.00
48964;BME280;34776;48.180;16.420;2022-08-19T12:47:10;99230.66;;;31.01;41.36
48964;BME280;34776;48.180;16.420;2022-08-19T12:49:36;99235.59;;;30.92;42.08
48964;BME280;34776;48.180;16.420;2022-08-19T12:52:04;99231.63;;;30.88;42.01
48964;BME280;34776;48.180;16.420;2022-08-19T12:54:30;99246.59;;;30.86;42.18
48964;BME280;34776;48.180;16.420;2022-08-19T12:56:56;99231.50;;;30.77;42.09
48964;BME280;34776;48.180;16.420;2022-08-19T12:59:22;99215.00;;;30.83;42.03
48964;BME280;34776;48.180;16.420;2022-08-19T13:01:47;99216.88;;;31.08;41.54
48964;BME280;34776;48.180;16.420;2022-08-19T13:04:13;99222.06;;;31.16;41.08
48964;BME280;34776;48.180;16.420;2022-08-19T13:06:38;99221.00;;;31.17;40.59
48964;BME280;34776;48.180;16.420;2022-08-19T13:09:04;99206.03;;;30.94;40.01
48964;BME280;34776;48.180;16.420;2022-08-19T13:11:30;99194.84;;;30.71;39.79
48964;BME280;34776;48.180;16.420;2022-08-19T13:14:01;99181.06;;;30.52;39.71
48964;BME280;34776;48.180;16.420;2022-08-19T13:16:26;99184.59;;;30.28;40.36